Avalon, Texas
Current Conditions -  °F | °C
As of 10:55 AM on Thursday 30 Oct 2014 (Local Time) from KJWY Reporting Station
Clear Clear  
Wind Chill: 67°   Ceiling: Unl
Heat Index: 67°   Visibility: 10mi
Dew Point: 48°   Wind: 10mph
Humidity: 50%   Direction: 160°SSE
Pressure: 30.19"   Gusts: NA
Location:  32.21°N, 96.79°W
Report Text: KJWY 301555Z AUTO 16009KT 10SM CLR 20/09 A3019 RMK AO2 T01960090
Loading
Personal Weather Stations






























Interactive Weather Map
Tropical Storm Tracking
New forecast layout! Learn more

10-Day Weather Forecast

Advertisements
Track Severe Weather on mobile